Time;durP1;ratioP1;P1;durP2;ratioP2;P2;SDS_P1;SDS_P2;PMS_P1;PMS_P2;Temp;Humidity;BMP_temperature;BMP_pressure;BME280_temperature;BME280_humidity;BME280_pressure;Samples;Min_cycle;Max_cycle;Signal;HPM_P1;HPM_P2
2022/10/15 00:02:16;;;;;;;5.05;1.40;;;;;;;9.46;79.62;101092.31;10452657;28;20407;-76
2022/10/15 00:07:26;;;;;;;3.25;1.80;;;;;;;9.54;78.92;101080.88;10444807;28;20056;-76
2022/10/15 00:12:29;;;;;;;1.77;1.30;;;;;;;9.57;79.76;101091.31;10406754;28;20045;-74
2022/10/15 00:17:33;;;;;;;2.55;1.83;;;;;;;9.43;78.92;101092.84;10441798;28;20060;-77
2022/10/15 00:22:36;;;;;;;3.65;1.70;;;;;;;9.42;80.31;101100.25;10428326;28;20041;-76
2022/10/15 00:27:39;;;;;;;4.22;1.27;;;;;;;9.38;80.23;101093.66;10445322;28;20033;-77
2022/10/15 00:32:42;;;;;;;1.67;1.17;;;;;;;9.32;80.61;101087.28;10410092;28;20038;-76
2022/10/15 00:37:44;;;;;;;2.50;1.42;;;;;;;9.28;81.55;101088.91;10447155;28;20041;-76
2022/10/15 00:42:47;;;;;;;3.03;1.63;;;;;;;9.06;81.90;101082.69;10437245;28;20033;-77
2022/10/15 00:47:50;;;;;;;3.53;1.50;;;;;;;8.98;82.32;101081.25;10445271;28;20046;-77
2022/10/15 00:53:00;;;;;;;3.35;1.77;;;;;;;8.97;83.40;101073.28;10443656;28;20034;-76
2022/10/15 00:58:12;;;;;;;2.35;1.60;;;;;;;8.77;84.24;101080.22;10446627;28;20060;-77
2022/10/15 01:03:15;;;;;;;5.85;2.22;;;;;;;8.83;84.76;101078.34;10428561;28;20084;-76
2022/10/15 01:08:18;;;;;;;2.63;1.73;;;;;;;8.84;84.89;101080.00;10446198;28;20047;-77
2022/10/15 01:13:34;;;;;;;3.00;1.90;;;;;;;8.96;84.52;101077.94;10432304;28;20060;-76
2022/10/15 01:19:04;;;;;;;2.00;1.52;;;;;;;8.92;84.87;101076.81;10424510;28;20049;-76
2022/10/15 01:24:21;;;;;;;5.05;1.77;;;;;;;8.79;85.20;101070.94;10435879;28;20056;-76
2022/10/15 01:29:51;;;;;;;2.97;1.77;;;;;;;8.79;85.32;101079.16;10441845;28;20045;-76
2022/10/15 01:35:19;;;;;;;4.43;2.15;;;;;;;8.79;84.98;101070.94;10452302;28;20419;-76
2022/10/15 01:40:38;;;;;;;4.10;2.08;;;;;;;8.69;85.42;101074.41;10458910;28;20079;-77
2022/10/15 01:45:50;;;;;;;3.08;1.95;;;;;;;8.67;86.18;101079.28;10431963;28;20034;-76
2022/10/15 01:51:04;;;;;;;3.33;1.75;;;;;;;8.76;85.92;101077.75;10422325;28;20052;-77
2022/10/15 01:56:11;;;;;;;4.10;2.10;;;;;;;8.77;86.25;101076.66;10426695;28;20041;-77
2022/10/15 02:01:14;;;;;;;5.57;2.10;;;;;;;8.84;85.64;101079.19;10426305;28;20050;-76
2022/10/15 02:06:36;;;;;;;2.60;1.70;;;;;;;8.70;86.48;101079.63;10443110;28;20076;-77
2022/10/15 02:12:07;;;;;;;4.28;1.90;;;;;;;8.68;86.40;101083.69;10426426;28;20041;-77
2022/10/15 02:17:10;;;;;;;3.25;1.88;;;;;;;8.54;86.09;101083.28;10430361;28;20060;-77
2022/10/15 02:22:14;;;;;;;4.30;2.17;;;;;;;8.45;86.94;101073.84;10443660;28;20519;-77
2022/10/15 02:27:17;;;;;;;3.67;1.98;;;;;;;8.35;86.35;101077.31;10420081;28;20038;-76
2022/10/15 02:32:20;;;;;;;6.65;2.20;;;;;;;8.25;87.27;101070.88;10419183;28;20045;-77
2022/10/15 02:37:25;;;;;;;3.38;1.83;;;;;;;8.20;88.24;101060.69;10438937;28;20061;-77
2022/10/15 02:42:27;;;;;;;2.60;1.75;;;;;;;8.14;87.64;101065.25;10441561;28;20516;-76
2022/10/15 02:47:30;;;;;;;3.25;2.10;;;;;;;8.16;87.92;101065.84;10442283;28;20527;-77
2022/10/15 02:52:32;;;;;;;3.17;2.17;;;;;;;8.32;88.36;101057.81;10446562;28;20046;-77
2022/10/15 02:57:35;;;;;;;4.05;1.95;;;;;;;8.30;87.43;101068.19;10465946;28;20431;-77
2022/10/15 03:02:38;;;;;;;3.28;2.05;;;;;;;8.39;87.29;101066.69;10462987;28;20045;-76
2022/10/15 03:07:41;;;;;;;4.15;2.03;;;;;;;8.40;86.69;101063.69;10452415;28;20034;-76
2022/10/15 03:12:44;;;;;;;3.78;1.92;;;;;;;8.44;87.14;101059.38;10407171;28;20057;-76
2022/10/15 03:17:48;;;;;;;13.07;2.40;;;;;;;8.44;86.55;101064.84;10469683;28;20041;-76
2022/10/15 03:22:52;;;;;;;4.50;2.10;;;;;;;8.57;86.89;101060.06;10444768;28;20037;-76
2022/10/15 03:27:55;;;;;;;4.25;1.92;;;;;;;8.62;86.73;101060.09;10452129;28;20527;-76
2022/10/15 03:33:06;;;;;;;5.95;2.50;;;;;;;8.66;85.55;101061.22;10437817;28;20037;-76
2022/10/15 03:38:10;;;;;;;2.85;2.03;;;;;;;8.50;85.96;101062.16;10452428;28;20045;-76
2022/10/15 03:43:13;;;;;;;3.72;1.83;;;;;;;8.43;85.88;101067.81;10462528;28;20041;-76
2022/10/15 03:48:15;;;;;;;6.57;2.33;;;;;;;8.32;86.47;101066.84;10449903;28;20046;-75
2022/10/15 03:53:17;;;;;;;3.20;2.15;;;;;;;8.38;86.82;101057.66;10433731;28;20037;-76
2022/10/15 03:58:20;;;;;;;2.50;1.98;;;;;;;8.33;86.49;101060.31;10457581;28;20044;-76
2022/10/15 04:03:30;;;;;;;3.65;2.20;;;;;;;8.37;87.18;101058.75;10458731;28;20053;-76
2022/10/15 04:08:33;;;;;;;3.53;2.42;;;;;;;8.45;86.97;101068.38;10446780;28;20056;-76
2022/10/15 04:13:41;;;;;;;3.88;2.13;;;;;;;8.34;86.13;101058.44;10445488;28;20042;-76
2022/10/15 04:18:44;;;;;;;3.20;1.85;;;;;;;8.32;86.65;101057.81;10436428;28;20060;-76
2022/10/15 04:23:46;;;;;;;3.20;2.30;;;;;;;8.14;86.64;101059.78;10445402;28;20053;-76
2022/10/15 04:28:58;;;;;;;3.00;2.00;;;;;;;8.21;87.75;101059.63;10453146;28;20056;-76
2022/10/15 04:34:01;;;;;;;5.63;2.55;;;;;;;8.23;87.59;101048.44;10427942;28;20049;-76
2022/10/15 04:39:04;;;;;;;6.85;2.08;;;;;;;8.20;87.23;101059.88;10430316;28;20055;-76
2022/10/15 04:44:17;;;;;;;2.58;2.00;;;;;;;8.28;87.54;101049.31;10442289;28;20057;-76
2022/10/15 04:49:26;;;;;;;3.67;2.28;;;;;;;8.29;87.17;101050.94;10438708;28;20049;-75
2022/10/15 04:54:28;;;;;;;3.47;1.98;;;;;;;8.31;86.87;101053.44;10430684;28;20415;-75
2022/10/15 04:59:37;;;;;;;4.18;2.08;;;;;;;8.22;86.82;101044.88;10436398;28;20037;-75
2022/10/15 05:05:08;;;;;;;6.68;2.45;;;;;;;8.09;86.75;101048.81;10462730;28;20056;-75
2022/10/15 05:10:20;;;;;;;4.10;2.20;;;;;;;8.02;87.00;101058.28;10447376;28;20049;-76
2022/10/15 05:15:26;;;;;;;5.07;2.42;;;;;;;8.07;87.66;101059.16;10473356;28;20415;-76
2022/10/15 05:20:28;;;;;;;5.80;2.63;;;;;;;8.21;86.78;101058.78;10457848;28;20037;-75
2022/10/15 05:25:30;;;;;;;5.93;2.63;;;;;;;8.27;87.05;101055.84;10426072;28;20041;-75
2022/10/15 05:30:34;;;;;;;3.50;2.33;;;;;;;8.26;87.27;101059.66;10424800;28;20041;-75
2022/10/15 05:35:38;;;;;;;4.20;2.50;;;;;;;8.26;87.43;101056.94;10400713;28;20128;-74
2022/10/15 05:40:42;;;;;;;3.83;2.40;;;;;;;8.45;86.42;101060.19;10426547;28;20053;-76
2022/10/15 05:45:55;;;;;;;5.25;2.47;;;;;;;8.39;87.29;101061.22;10424064;28;20053;-77
2022/10/15 05:51:07;;;;;;;5.55;2.88;;;;;;;8.57;86.93;101062.78;10441613;28;20037;-77
2022/10/15 05:56:15;;;;;;;6.63;2.50;;;;;;;8.47;86.18;101068.97;10424746;28;20041;-77
2022/10/15 06:01:17;;;;;;;4.40;2.35;;;;;;;8.42;85.73;101072.47;10435888;28;20049;-75
2022/10/15 06:06:26;;;;;;;4.00;2.50;;;;;;;8.38;85.96;101062.31;10435795;28;20124;-75
2022/10/15 06:11:29;;;;;;;3.50;2.53;;;;;;;8.39;85.94;101078.47;10436541;28;20064;-75
2022/10/15 06:16:32;;;;;;;5.05;2.42;;;;;;;8.50;85.78;101068.44;10432406;28;20049;-75
2022/10/15 06:21:34;;;;;;;4.78;2.75;;;;;;;8.58;85.61;101080.84;10447735;28;20048;-76
2022/10/15 06:26:36;;;;;;;4.40;2.47;;;;;;;8.67;85.89;101084.75;10432854;28;20068;-75
2022/10/15 06:31:38;;;;;;;4.80;2.33;;;;;;;8.75;85.20;101079.66;10449614;28;20041;-75
2022/10/15 06:36:40;;;;;;;5.80;3.20;;;;;;;9.12;84.38;101091.78;10449433;28;20474;-75
2022/10/15 06:41:43;;;;;;;4.45;2.92;;;;;;;9.32;83.31;101087.28;10449882;28;20045;-75
2022/10/15 06:46:45;;;;;;;6.47;2.83;;;;;;;9.61;81.56;101085.03;10445356;28;20407;-75
2022/10/15 06:51:47;;;;;;;6.63;3.35;;;;;;;9.73;80.79;101084.84;10449182;28;20041;-75
2022/10/15 06:56:50;;;;;;;5.80;3.08;;;;;;;9.68;80.49;101090.28;10448194;28;20052;-75
2022/10/15 07:01:52;;;;;;;4.97;2.67;;;;;;;9.76;80.71;101087.06;10449050;28;20029;-75
2022/10/15 07:06:54;;;;;;;7.05;3.58;;;;;;;9.89;80.30;101086.59;10447989;28;20037;-75
2022/10/15 07:11:57;;;;;;;6.10;2.80;;;;;;;10.15;78.64;101103.16;10449975;28;20041;-75
2022/10/15 07:16:59;;;;;;;4.95;3.03;;;;;;;10.13;78.91;101097.94;10438297;28;20065;-75
2022/10/15 07:22:02;;;;;;;4.10;2.78;;;;;;;10.16;78.54;101104.81;10448671;28;20041;-75
2022/10/15 07:27:04;;;;;;;6.07;3.00;;;;;;;9.96;78.08;101106.38;10447577;28;20040;-75
2022/10/15 07:32:07;;;;;;;5.07;2.67;;;;;;;9.84;78.70;101110.41;10440415;28;20053;-75
2022/10/15 07:37:09;;;;;;;5.80;2.90;;;;;;;9.96;79.46;101117.34;10449027;28;20041;-75
2022/10/15 07:42:11;;;;;;;6.47;3.28;;;;;;;10.54;78.17;101122.84;10446491;28;20038;-75
2022/10/15 07:47:13;;;;;;;5.60;3.03;;;;;;;11.15;76.02;101115.56;10448498;28;20049;-75
2022/10/15 07:52:16;;;;;;;5.63;3.63;;;;;;;11.57;74.39;101116.38;10448874;28;20060;-74
2022/10/15 07:57:18;;;;;;;5.97;3.88;;;;;;;11.68;73.03;101116.09;10447321;28;20053;-76
2022/10/15 08:02:21;;;;;;;5.70;3.40;;;;;;;12.15;71.88;101125.94;10430130;28;20411;-76
2022/10/15 08:07:23;;;;;;;7.70;3.92;;;;;;;11.87;71.27;101121.06;10446115;28;20052;-75
2022/10/15 08:12:25;;;;;;;7.25;3.38;;;;;;;11.47;72.23;101128.22;10426167;28;20045;-75
2022/10/15 08:17:28;;;;;;;13.90;3.70;;;;;;;11.17;73.33;101129.84;10443979;28;20551;-75
2022/10/15 08:22:30;;;;;;;4.72;3.33;;;;;;;11.02;73.45;101137.25;10412084;28;20827;-75
2022/10/15 08:27:33;;;;;;;7.25;3.67;;;;;;;11.61;72.88;101129.28;10445792;28;20041;-75
2022/10/15 08:32:39;;;;;;;5.30;3.72;;;;;;;11.75;71.92;101124.88;10444340;28;20431;-75
2022/10/15 08:37:41;;;;;;;8.98;4.20;;;;;;;11.31;72.84;101126.56;10438678;28;20045;-75
2022/10/15 08:42:45;;;;;;;7.07;3.40;;;;;;;11.13;72.99;101131.50;10435191;28;20045;-75
2022/10/15 08:47:52;;;;;;;6.40;3.75;;;;;;;10.97;74.18;101137.25;10445644;28;20046;-74
2022/10/15 08:52:56;;;;;;;10.95;3.60;;;;;;;10.93;74.11;101128.69;10441655;28;20054;-75
2022/10/15 08:58:02;;;;;;;8.50;4.00;;;;;;;10.99;74.23;101129.56;10427307;28;20057;-75
2022/10/15 09:03:05;;;;;;;11.35;4.78;;;;;;;11.09;74.56;101124.06;10444987;28;20053;-75
2022/10/15 09:08:37;;;;;;;8.10;4.32;;;;;;;11.13;74.19;101128.75;10444987;28;20397;-75
2022/10/15 09:13:41;;;;;;;9.40;4.28;;;;;;;11.09;74.51;101129.56;10445011;28;20037;-75
2022/10/15 09:18:46;;;;;;;11.48;4.93;;;;;;;11.20;73.87;101133.97;10433480;28;20072;-74
2022/10/15 09:23:49;;;;;;;9.27;5.20;;;;;;;11.11;74.25;101128.22;10421036;28;20033;-74
2022/10/15 09:29:10;;;;;;;8.43;4.25;;;;;;;11.10;74.62;101120.22;10441070;28;20519;-75
2022/10/15 09:34:39;;;;;;;7.97;4.78;;;;;;;11.26;74.16;101129.28;10440223;28;20041;-77
2022/10/15 09:40:14;;;;;;;7.75;4.88;;;;;;;11.24;73.77;101128.75;10431371;28;20045;-77
2022/10/15 09:45:17;;;;;;;11.57;5.40;;;;;;;11.41;73.99;101129.31;10414454;28;20045;-76
2022/10/15 09:50:19;;;;;;;9.25;5.15;;;;;;;11.41;73.88;101123.81;10409076;28;20044;-77
2022/10/15 09:55:40;;;;;;;9.07;4.95;;;;;;;11.37;74.12;101119.97;10410693;28;20641;-77
2022/10/15 10:01:04;;;;;;;6.18;3.85;;;;;;;11.39;73.36;101118.59;10411345;28;20041;-77
2022/10/15 10:06:42;;;;;;;8.40;4.68;;;;;;;11.32;73.62;101117.22;10411654;28;20037;-76
2022/10/15 10:11:50;;;;;;;6.88;4.15;;;;;;;11.16;73.79;101119.13;10408487;28;20034;-75
2022/10/15 10:17:18;;;;;;;9.40;4.55;;;;;;;11.11;73.92;101114.47;10411774;28;20057;-75
2022/10/15 10:22:25;;;;;;;14.98;5.85;;;;;;;11.06;73.55;101117.19;10409889;28;20536;-75
2022/10/15 10:27:28;;;;;;;13.77;5.53;;;;;;;11.01;74.51;101110.88;10416334;28;20038;-73
2022/10/15 10:32:33;;;;;;;10.32;4.43;;;;;;;11.02;74.18;101110.59;10409102;28;20511;-74
2022/10/15 10:37:42;;;;;;;11.30;5.57;;;;;;;11.13;74.21;101109.53;10425113;28;20504;-75
2022/10/15 10:42:46;;;;;;;9.68;4.75;;;;;;;11.15;74.24;101110.06;10440169;28;20415;-76
2022/10/15 10:47:49;;;;;;;9.23;5.07;;;;;;;11.15;74.35;101118.31;10432991;28;20574;-76
2022/10/15 10:52:52;;;;;;;9.50;5.30;;;;;;;11.13;74.48;101117.78;10438522;28;20041;-76
2022/10/15 10:58:01;;;;;;;7.93;5.22;;;;;;;11.14;74.94;101113.09;10440983;28;20046;-76
2022/10/15 11:03:03;;;;;;;9.57;5.63;;;;;;;11.28;74.70;101113.34;10426458;28;20042;-76
2022/10/15 11:08:27;;;;;;;7.05;4.97;;;;;;;11.36;73.82;101110.06;10441487;28;20038;-76
2022/10/15 11:13:56;;;;;;;7.47;4.72;;;;;;;11.40;73.76;101105.69;10448618;28;20052;-77
2022/10/15 11:19:40;;;;;;;8.80;5.15;;;;;;;11.63;73.47;101109.81;10425954;28;20038;-78
2022/10/15 11:24:52;;;;;;;12.70;5.25;;;;;;;11.78;73.33;101104.25;10416269;28;20037;-76
2022/10/15 11:30:03;;;;;;;10.32;5.00;;;;;;;11.91;72.48;101102.91;10416628;28;20505;-76
2022/10/15 11:35:15;;;;;;;8.95;4.50;;;;;;;12.08;71.10;101111.66;10447273;28;20040;-76
2022/10/15 11:40:39;;;;;;;7.22;4.40;;;;;;;12.15;70.84;101098.44;10446977;28;20795;-78
2022/10/15 11:45:56;;;;;;;7.50;4.25;;;;;;;12.26;70.46;101102.78;10448042;28;20041;-77
2022/10/15 11:51:03;;;;;;;11.23;4.53;;;;;;;12.25;70.62;101106.63;10453523;28;20146;-77
2022/10/15 11:56:10;;;;;;;9.55;4.68;;;;;;;12.29;70.43;101102.22;10473370;28;20034;-77
2022/10/15 12:01:31;;;;;;;6.40;4.25;;;;;;;12.34;69.75;101096.72;10442311;28;20060;-77
2022/10/15 12:06:36;;;;;;;9.95;4.88;;;;;;;12.43;70.10;101098.88;10446721;28;20050;-75
2022/10/15 12:11:59;;;;;;;10.32;4.30;;;;;;;12.43;69.74;101113.44;10445227;28;20519;-76
2022/10/15 12:17:20;;;;;;;10.43;4.03;;;;;;;12.48;69.56;101098.84;10440704;28;20041;-75
2022/10/15 12:22:56;;;;;;;8.38;4.70;;;;;;;12.54;69.79;101111.47;10442152;28;20124;-76
2022/10/15 12:28:03;;;;;;;6.40;4.40;;;;;;;12.66;69.08;101096.25;10440432;28;20570;-77
2022/10/15 12:33:36;;;;;;;8.07;4.68;;;;;;;12.65;68.79;101100.13;10447034;28;20443;-77
2022/10/15 12:38:40;;;;;;;6.10;4.25;;;;;;;12.59;68.82;101103.19;10445659;28;20550;-76
2022/10/15 12:43:47;;;;;;;8.90;4.90;;;;;;;12.56;68.79;101103.75;10440552;28;20037;-76
2022/10/15 12:48:57;;;;;;;9.87;4.50;;;;;;;12.56;69.50;101099.09;10445436;28;20071;-76
2022/10/15 12:54:01;;;;;;;7.18;4.47;;;;;;;12.54;69.18;101104.03;10445271;28;20432;-76
2022/10/15 12:59:26;;;;;;;8.65;4.57;;;;;;;12.58;69.92;101116.13;10425872;28;20523;-76
2022/10/15 13:04:36;;;;;;;7.65;4.35;;;;;;;12.67;68.82;101106.19;10443604;28;20048;-77
2022/10/15 13:09:41;;;;;;;10.38;4.60;;;;;;;12.65;68.80;101113.06;10444725;28;20432;-77
2022/10/15 13:14:54;;;;;;;6.22;3.97;;;;;;;12.62;68.71;101108.13;10445618;28;20463;-77
2022/10/15 13:20:03;;;;;;;11.20;5.90;;;;;;;12.55;68.80;101110.38;10411245;28;20046;-76
2022/10/15 13:25:15;;;;;;;6.90;4.05;;;;;;;12.51;68.75;101120.31;10403188;28;20049;-76
2022/10/15 13:30:18;;;;;;;12.38;4.53;;;;;;;12.31;69.06;101116.50;10386884;28;20038;-76
2022/10/15 13:35:21;;;;;;;6.80;4.10;;;;;;;12.21;69.38;101115.75;10417732;28;20045;-76
2022/10/15 13:40:26;;;;;;;8.30;4.28;;;;;;;12.20;69.70;101114.91;10443653;28;20049;-76
2022/10/15 13:45:29;;;;;;;10.13;5.03;;;;;;;12.17;69.62;101115.50;10441787;28;20515;-77
2022/10/15 13:50:35;;;;;;;7.15;4.18;;;;;;;12.11;69.55;101107.50;10408163;28;20516;-77
2022/10/15 13:55:43;;;;;;;7.53;4.23;;;;;;;12.05;69.42;101102.03;10403818;28;20049;-77
2022/10/15 14:00:52;;;;;;;6.90;4.35;;;;;;;11.89;69.58;101107.84;10402040;28;20049;-77
2022/10/15 14:06:20;;;;;;;8.63;4.28;;;;;;;12.14;69.77;101105.03;10402769;28;20042;-74
2022/10/15 14:11:22;;;;;;;10.43;4.68;;;;;;;12.29;69.07;101101.38;10441023;28;20037;-74
2022/10/15 14:16:50;;;;;;;7.60;3.63;;;;;;;12.24;67.87;101105.00;10442377;28;20052;-74
2022/10/15 14:21:53;;;;;;;6.90;4.50;;;;;;;12.06;68.62;101100.09;10441247;28;20052;-77
2022/10/15 14:27:03;;;;;;;8.73;4.72;;;;;;;11.85;68.85;101101.28;10444588;28;20050;-75
2022/10/15 14:32:45;;;;;;;10.30;3.85;;;;;;;11.75;68.99;101099.31;10443855;28;20043;-75
2022/10/15 14:37:58;;;;;;;10.70;3.90;;;;;;;11.62;70.25;101100.69;10437994;28;20053;-77
2022/10/15 14:43:14;;;;;;;8.05;4.30;;;;;;;11.65;70.09;101102.91;10434598;28;20057;-76
2022/10/15 14:48:31;;;;;;;9.23;3.90;;;;;;;11.63;70.04;101098.81;10450337;28;20038;-76
2022/10/15 14:53:35;;;;;;;8.67;4.13;;;;;;;11.80;70.62;101093.84;10445183;28;20033;-76
2022/10/15 14:58:38;;;;;;;10.10;4.40;;;;;;;11.81;70.54;101089.19;10449859;28;20037;-76
2022/10/15 15:03:43;;;;;;;9.50;4.57;;;;;;;11.88;69.87;101093.28;10449365;28;20439;-76
2022/10/15 15:08:45;;;;;;;12.13;5.00;;;;;;;11.90;70.23;101087.50;10449285;28;20034;-76
2022/10/15 15:13:48;;;;;;;8.63;3.90;;;;;;;11.78;70.71;101091.38;10416572;28;20068;-76
2022/10/15 15:18:51;;;;;;;8.18;4.15;;;;;;;11.73;71.54;101093.28;10431754;28;20389;-76
2022/10/15 15:23:53;;;;;;;7.07;4.22;;;;;;;11.76;71.78;101101.78;10442630;28;20037;-76
2022/10/15 15:28:55;;;;;;;6.35;4.00;;;;;;;11.66;71.33;101103.75;10409096;28;20034;-76
2022/10/15 15:33:57;;;;;;;7.05;4.30;;;;;;;11.71;71.77;101096.31;10408608;28;20049;-76
2022/10/15 15:39:00;;;;;;;9.30;4.68;;;;;;;11.70;71.83;101099.34;10408589;28;20049;-76
2022/10/15 15:44:04;;;;;;;8.02;4.55;;;;;;;11.74;71.48;101100.41;10449767;28;20041;-76
2022/10/15 15:49:06;;;;;;;11.45;4.65;;;;;;;11.62;72.05;101097.13;10444221;28;20029;-75
2022/10/15 15:54:09;;;;;;;10.18;5.57;;;;;;;11.69;72.28;101090.25;10448003;28;20033;-75
2022/10/15 15:59:11;;;;;;;9.35;5.38;;;;;;;11.57;72.34;101095.22;10447210;28;20053;-78
2022/10/15 16:04:14;;;;;;;9.45;4.70;;;;;;;11.55;72.78;101094.69;10450736;28;20048;-75
2022/10/15 16:09:19;;;;;;;9.70;4.72;;;;;;;11.65;72.12;101097.44;10446366;28;20045;-78
2022/10/15 16:14:21;;;;;;;8.57;5.00;;;;;;;11.59;71.69;101094.94;10446695;28;20056;-78
2022/10/15 16:19:24;;;;;;;8.80;4.85;;;;;;;11.47;71.73;101095.25;10446454;28;20037;-78
2022/10/15 16:24:26;;;;;;;13.20;4.80;;;;;;;11.46;72.65;101096.34;10459295;28;20064;-78
2022/10/15 16:29:29;;;;;;;11.95;4.65;;;;;;;11.37;71.96;101100.75;10445391;28;20045;-78
2022/10/15 16:34:31;;;;;;;6.47;3.72;;;;;;;11.32;72.19;101096.06;10444568;28;20048;-78
2022/10/15 16:39:34;;;;;;;11.82;4.78;;;;;;;11.28;71.96;101100.47;10447103;28;20498;-74
2022/10/15 16:44:36;;;;;;;9.13;4.97;;;;;;;11.32;72.18;101098.00;10445466;28;20041;-75
2022/10/15 16:49:41;;;;;;;9.25;4.53;;;;;;;11.27;72.66;101098.78;10442959;28;20048;-76
2022/10/15 16:54:43;;;;;;;11.10;5.43;;;;;;;11.30;72.23;101097.44;10444856;28;20037;-75
2022/10/15 16:59:45;;;;;;;9.48;4.15;;;;;;;11.37;72.03;101106.22;10444596;28;20436;-75
2022/10/15 17:04:48;;;;;;;7.72;4.80;;;;;;;11.43;71.91;101097.69;10442796;28;20046;-77
2022/10/15 17:09:50;;;;;;;7.80;4.53;;;;;;;11.46;71.79;101105.41;10438392;28;20056;-76
2022/10/15 17:14:53;;;;;;;9.85;4.28;;;;;;;11.48;71.91;101103.22;10450610;28;20049;-76
2022/10/15 17:19:56;;;;;;;8.18;4.57;;;;;;;11.52;71.49;101103.47;10441481;28;20045;-77
2022/10/15 17:24:58;;;;;;;10.02;4.30;;;;;;;11.57;71.93;101108.97;10441920;28;20519;-78
2022/10/15 17:30:01;;;;;;;7.63;4.25;;;;;;;11.59;71.48;101108.69;10444189;28;20404;-78
2022/10/15 17:35:03;;;;;;;7.40;4.70;;;;;;;11.59;70.46;101104.00;10485484;28;20533;-76
2022/10/15 17:40:06;;;;;;;11.98;4.80;;;;;;;11.77;70.84;101117.19;10438694;28;20423;-77
2022/10/15 17:45:10;;;;;;;8.93;4.80;;;;;;;11.84;70.15;101113.38;10442414;28;20037;-77
2022/10/15 17:50:13;;;;;;;5.90;3.42;;;;;;;11.99;69.35;101118.84;10409614;28;20037;-77
2022/10/15 17:55:16;;;;;;;6.53;3.63;;;;;;;12.06;68.49;101127.63;10429295;28;20046;-77
2022/10/15 18:00:18;;;;;;;9.25;4.18;;;;;;;12.01;68.76;101127.63;10430565;28;20045;-79
2022/10/15 18:05:21;;;;;;;7.57;3.83;;;;;;;12.05;68.56;101137.78;10423612;28;20452;-79
2022/10/15 18:10:23;;;;;;;7.68;4.05;;;;;;;12.11;68.72;101130.34;10438179;28;20052;-77
2022/10/15 18:15:28;;;;;;;7.43;4.15;;;;;;;12.03;68.54;101130.94;10448518;28;20151;-76
2022/10/15 18:20:31;;;;;;;7.85;3.95;;;;;;;12.13;68.64;101128.13;10449091;28;20057;-77
2022/10/15 18:25:33;;;;;;;9.00;4.60;;;;;;;12.18;68.80;101133.66;10448799;28;20052;-76
2022/10/15 18:30:37;;;;;;;8.77;4.10;;;;;;;12.17;68.29;101137.50;10444121;28;20065;-81
2022/10/15 18:35:40;;;;;;;11.05;4.60;;;;;;;12.00;69.09;101137.00;10450368;28;20033;-80
2022/10/15 18:40:43;;;;;;;7.03;4.32;;;;;;;11.96;69.01;101127.63;10447824;28;20424;-82
2022/10/15 18:45:46;;;;;;;7.60;4.38;;;;;;;11.90;69.05;101120.50;10449506;28;20507;-75
2022/10/15 18:50:48;;;;;;;10.57;4.70;;;;;;;11.95;69.13;101123.22;10448823;28;20064;-77
2022/10/15 18:55:50;;;;;;;10.23;4.68;;;;;;;11.78;69.26;101124.34;10433858;28;20041;-77
2022/10/15 19:00:53;;;;;;;8.85;4.65;;;;;;;11.71;69.94;101128.47;10412378;28;20044;-75
2022/10/15 19:05:56;;;;;;;8.60;4.90;;;;;;;11.64;70.49;101127.94;10443693;28;20053;-74
2022/10/15 19:11:23;;;;;;;7.47;4.57;;;;;;;11.69;70.84;101131.50;10442749;28;20053;-72
2022/10/15 19:16:26;;;;;;;7.60;4.50;;;;;;;11.66;70.44;101131.22;10451271;28;20046;-73
2022/10/15 19:21:29;;;;;;;10.02;4.90;;;;;;;11.61;70.18;101132.03;10449803;28;20046;-73
2022/10/15 19:26:32;;;;;;;9.45;4.90;;;;;;;11.66;71.02;101140.31;10442391;28;20045;-72
2022/10/15 19:31:41;;;;;;;7.78;4.47;;;;;;;11.63;70.97;101129.03;10418212;28;20068;-72
2022/10/15 19:36:46;;;;;;;10.68;4.88;;;;;;;11.67;70.49;101130.97;10439200;28;20512;-72
2022/10/15 19:41:53;;;;;;;7.07;4.00;;;;;;;11.59;71.36;101126.00;10448374;28;20041;-73
2022/10/15 19:46:56;;;;;;;5.55;3.53;;;;;;;11.45;71.66;101141.38;10455332;28;20052;-72
2022/10/15 19:51:59;;;;;;;6.60;3.83;;;;;;;11.45;71.94;101135.88;10451207;28;20033;-72
2022/10/15 19:57:02;;;;;;;8.60;4.03;;;;;;;11.31;71.96;101143.06;10446342;28;20053;-72
2022/10/15 20:02:05;;;;;;;8.48;4.32;;;;;;;11.44;71.47;101134.25;10444865;28;20419;-79
2022/10/15 20:07:07;;;;;;;8.93;5.00;;;;;;;11.35;71.66;101136.72;10448399;28;20038;-77
2022/10/15 20:12:10;;;;;;;11.02;4.60;;;;;;;11.36;72.29;101148.53;10446632;28;20519;-77
2022/10/15 20:17:12;;;;;;;10.13;4.57;;;;;;;11.36;71.70;101143.88;10443522;28;20072;-76
2022/10/15 20:22:14;;;;;;;9.30;4.60;;;;;;;11.23;71.86;101143.59;10454932;28;20040;-74
2022/10/15 20:27:17;;;;;;;10.70;5.68;;;;;;;11.15;72.46;101156.78;10445433;28;20439;-76
2022/10/15 20:32:20;;;;;;;9.38;4.63;;;;;;;11.10;71.97;101155.91;10442608;28;20415;-76
2022/10/15 20:37:23;;;;;;;9.52;5.20;;;;;;;11.02;72.60;101157.28;10444934;28;20168;-76
2022/10/15 20:42:25;;;;;;;7.57;4.57;;;;;;;11.08;73.24;101158.94;10428378;28;20054;-77
2022/10/15 20:47:27;;;;;;;5.88;4.07;;;;;;;11.09;72.78;101157.84;10454034;28;20037;-76
2022/10/15 20:52:30;;;;;;;8.68;4.97;;;;;;;11.20;72.12;101166.94;10445998;28;20052;-75
2022/10/15 20:57:33;;;;;;;8.02;4.50;;;;;;;11.15;72.67;101153.19;10446073;28;20496;-75
2022/10/15 21:02:35;;;;;;;10.32;4.35;;;;;;;11.22;72.11;101155.66;10438805;28;20049;-75
2022/10/15 21:07:38;;;;;;;7.07;4.30;;;;;;;11.28;72.98;101154.56;10437532;28;20559;-76
2022/10/15 21:12:40;;;;;;;6.90;4.20;;;;;;;11.36;72.16;101154.03;10460055;28;20040;-77
2022/10/15 21:17:43;;;;;;;9.43;4.55;;;;;;;11.50;71.65;101157.06;10441163;28;20072;-77
2022/10/15 21:22:45;;;;;;;11.38;4.63;;;;;;;11.40;72.29;101152.38;10441122;28;20390;-76
2022/10/15 21:27:47;;;;;;;9.50;4.75;;;;;;;11.42;72.16;101153.75;10444037;28;20060;-76
2022/10/15 21:32:49;;;;;;;8.23;4.90;;;;;;;11.43;72.22;101160.06;10449599;28;20423;-77
2022/10/15 21:37:52;;;;;;;7.63;4.60;;;;;;;11.61;72.56;101156.78;10440492;28;20052;-77
2022/10/15 21:42:55;;;;;;;11.52;5.45;;;;;;;11.46;71.70;101157.63;10442800;28;20475;-77
2022/10/15 21:47:58;;;;;;;9.45;5.32;;;;;;;11.43;72.57;101157.34;10444916;28;20063;-77
2022/10/15 21:53:02;;;;;;;8.07;4.45;;;;;;;11.46;71.94;101157.63;10428958;28;20046;-77
2022/10/15 21:58:05;;;;;;;8.13;4.90;;;;;;;11.49;72.66;101156.25;10427887;28;20518;-89
2022/10/15 22:03:07;;;;;;;14.35;4.78;;;;;;;11.34;72.80;101154.31;10441591;28;20041;-80
2022/10/15 22:08:10;;;;;;;10.00;5.13;;;;;;;11.42;72.96;101147.44;10448395;28;21202;-78
2022/10/15 22:13:12;;;;;;;7.57;4.45;;;;;;;11.59;72.63;101156.22;10440849;28;20052;-78
2022/10/15 22:18:15;;;;;;;8.60;4.93;;;;;;;11.51;72.42;101162.31;10438861;28;20436;-75
2022/10/15 22:23:17;;;;;;;8.00;4.85;;;;;;;11.53;73.27;101162.03;10439745;28;20065;-79
2022/10/15 22:28:19;;;;;;;7.70;5.30;;;;;;;11.73;71.96;101154.59;10440800;28;20042;-80
2022/10/15 22:33:22;;;;;;;7.05;4.95;;;;;;;11.56;72.38;101161.47;10439065;28;20042;-81
2022/10/15 22:38:24;;;;;;;9.55;5.97;;;;;;;11.45;72.64;101158.72;10457824;28;20045;-83
2022/10/15 22:43:26;;;;;;;12.68;5.07;;;;;;;11.53;72.69;101162.03;10476824;28;20049;-77
2022/10/15 22:48:33;;;;;;;9.77;5.35;;;;;;;11.34;73.11;101167.22;10441736;28;20038;-77
2022/10/15 22:53:36;;;;;;;8.80;4.70;;;;;;;11.45;73.66;101158.72;10443761;28;20045;-78
2022/10/15 22:58:39;;;;;;;10.07;4.45;;;;;;;11.68;72.45;101157.34;10441748;28;20048;-81
2022/10/15 23:03:44;;;;;;;8.25;5.13;;;;;;;11.78;72.65;101159.25;10446117;28;20049;-79
2022/10/15 23:08:47;;;;;;;8.07;5.47;;;;;;;11.72;72.25;101166.69;10438357;28;20038;-83
2022/10/15 23:13:54;;;;;;;9.98;5.68;;;;;;;11.67;72.89;101163.94;10447820;28;20049;-82
2022/10/15 23:19:17;;;;;;;10.05;5.03;;;;;;;11.60;72.34;101155.13;10423355;28;20492;-81
2022/10/15 23:24:22;;;;;;;8.52;5.15;;;;;;;11.55;72.81;101165.31;10447433;28;20519;-80
2022/10/15 23:29:25;;;;;;;10.23;5.15;;;;;;;11.38;73.77;101151.84;10443235;28;20037;-83
2022/10/15 23:34:27;;;;;;;9.80;6.28;;;;;;;11.26;74.37;101159.50;10444869;28;20045;-79